sensor_id;sensor_type;location;lat;lon;timestamp;temperature;humidity
8888;DHT22;4480;52.370;9.748;2023-12-20T00:01:35;6.90;99.90
8888;DHT22;4480;52.370;9.748;2023-12-20T00:04:02;6.90;99.90
8888;DHT22;4480;52.370;9.748;2023-12-20T00:06:31;6.90;99.90
8888;DHT22;4480;52.370;9.748;2023-12-20T00:08:57;6.80;99.90
8888;DHT22;4480;52.370;9.748;2023-12-20T00:11:24;6.80;99.90
8888;DHT22;4480;52.370;9.748;2023-12-20T00:13:51;6.80;99.90
8888;DHT22;4480;52.370;9.748;2023-12-20T00:16:18;6.70;99.90
8888;DHT22;4480;52.370;9.748;2023-12-20T00:18:45;6.70;99.90
8888;DHT22;4480;52.370;9.748;2023-12-20T00:21:12;6.70;99.90
8888;DHT22;4480;52.370;9.748;2023-12-20T00:23:40;6.60;99.90
8888;DHT22;4480;52.370;9.748;2023-12-20T00:26:06;6.60;99.90
8888;DHT22;4480;52.370;9.748;2023-12-20T00:28:33;6.60;99.90
8888;DHT22;4480;52.370;9.748;2023-12-20T00:31:00;6.60;99.90
8888;DHT22;4480;52.370;9.748;2023-12-20T00:33:27;6.50;99.90
8888;DHT22;4480;52.370;9.748;2023-12-20T00:35:54;6.50;99.90
8888;DHT22;4480;52.370;9.748;2023-12-20T00:38:20;6.50;99.90
8888;DHT22;4480;52.370;9.748;2023-12-20T00:40:49;6.40;99.90
8888;DHT22;4480;52.370;9.748;2023-12-20T00:43:16;6.40;99.90
8888;DHT22;4480;52.370;9.748;2023-12-20T00:45:43;6.40;99.90
8888;DHT22;4480;52.370;9.748;2023-12-20T00:48:09;6.40;99.90
8888;DHT22;4480;52.370;9.748;2023-12-20T00:50:36;6.40;99.90
8888;DHT22;4480;52.370;9.748;2023-12-20T00:53:03;6.40;99.90
8888;DHT22;4480;52.370;9.748;2023-12-20T00:55:31;6.40;99.90
8888;DHT22;4480;52.370;9.748;2023-12-20T00:57:59;6.40;99.90
8888;DHT22;4480;52.370;9.748;2023-12-20T01:00:26;6.40;99.90
8888;DHT22;4480;52.370;9.748;2023-12-20T01:02:53;6.30;99.90
8888;DHT22;4480;52.370;9.748;2023-12-20T01:05:19;6.30;99.90
8888;DHT22;4480;52.370;9.748;2023-12-20T01:07:48;6.30;99.90
8888;DHT22;4480;52.370;9.748;2023-12-20T01:10:15;6.20;99.90
8888;DHT22;4480;52.370;9.748;2023-12-20T01:12:43;6.20;99.90
8888;DHT22;4480;52.370;9.748;2023-12-20T01:15:11;6.20;99.90
8888;DHT22;4480;52.370;9.748;2023-12-20T01:17:38;6.20;99.90
8888;DHT22;4480;52.370;9.748;2023-12-20T01:20:06;6.20;99.90
8888;DHT22;4480;52.370;9.748;2023-12-20T01:22:33;6.10;99.90
8888;DHT22;4480;52.370;9.748;2023-12-20T01:25:01;6.10;99.90
8888;DHT22;4480;52.370;9.748;2023-12-20T01:27:29;6.10;99.90
8888;DHT22;4480;52.370;9.748;2023-12-20T01:29:56;6.20;99.90
8888;DHT22;4480;52.370;9.748;2023-12-20T01:32:24;6.20;99.90
8888;DHT22;4480;52.370;9.748;2023-12-20T01:34:51;6.20;99.90
8888;DHT22;4480;52.370;9.748;2023-12-20T01:37:18;6.20;99.90
8888;DHT22;4480;52.370;9.748;2023-12-20T01:39:44;6.20;99.90
8888;DHT22;4480;52.370;9.748;2023-12-20T01:42:11;6.30;99.90
8888;DHT22;4480;52.370;9.748;2023-12-20T01:44:38;6.30;99.90
8888;DHT22;4480;52.370;9.748;2023-12-20T01:47:05;6.30;99.90
8888;DHT22;4480;52.370;9.748;2023-12-20T01:49:33;6.30;99.90
8888;DHT22;4480;52.370;9.748;2023-12-20T01:52:00;6.30;99.90
8888;DHT22;4480;52.370;9.748;2023-12-20T01:54:27;6.30;99.90
8888;DHT22;4480;52.370;9.748;2023-12-20T01:56:54;6.10;99.90
8888;DHT22;4480;52.370;9.748;2023-12-20T01:59:21;6.10;99.90
8888;DHT22;4480;52.370;9.748;2023-12-20T02:01:48;6.00;99.90
8888;DHT22;4480;52.370;9.748;2023-12-20T02:04:15;6.00;99.90
8888;DHT22;4480;52.370;9.748;2023-12-20T02:06:44;6.00;99.90
8888;DHT22;4480;52.370;9.748;2023-12-20T02:09:12;6.00;99.90
8888;DHT22;4480;52.370;9.748;2023-12-20T02:11:39;6.00;99.90
8888;DHT22;4480;52.370;9.748;2023-12-20T02:14:06;6.00;99.90
8888;DHT22;4480;52.370;9.748;2023-12-20T02:16:33;6.00;99.90
8888;DHT22;4480;52.370;9.748;2023-12-20T02:19:00;6.00;99.90
8888;DHT22;4480;52.370;9.748;2023-12-20T02:21:33;6.00;99.90
8888;DHT22;4480;52.370;9.748;2023-12-20T02:24:00;6.00;99.90
8888;DHT22;4480;52.370;9.748;2023-12-20T02:26:27;6.00;99.90
8888;DHT22;4480;52.370;9.748;2023-12-20T02:28:54;5.90;99.90
8888;DHT22;4480;52.370;9.748;2023-12-20T02:31:21;6.00;99.90
8888;DHT22;4480;52.370;9.748;2023-12-20T02:33:48;5.90;99.90
8888;DHT22;4480;52.370;9.748;2023-12-20T02:36:15;5.90;99.90
8888;DHT22;4480;52.370;9.748;2023-12-20T02:38:43;5.90;99.90
8888;DHT22;4480;52.370;9.748;2023-12-20T02:41:10;5.90;99.90
8888;DHT22;4480;52.370;9.748;2023-12-20T02:43:37;5.90;99.90
8888;DHT22;4480;52.370;9.748;2023-12-20T02:46:04;5.80;99.90
8888;DHT22;4480;52.370;9.748;2023-12-20T02:48:30;5.80;99.90
8888;DHT22;4480;52.370;9.748;2023-12-20T02:50:57;5.80;99.90
8888;DHT22;4480;52.370;9.748;2023-12-20T02:53:24;5.80;99.90
8888;DHT22;4480;52.370;9.748;2023-12-20T02:55:52;5.70;99.90
8888;DHT22;4480;52.370;9.748;2023-12-20T02:58:19;5.70;99.90
8888;DHT22;4480;52.370;9.748;2023-12-20T03:00:46;5.60;99.90
8888;DHT22;4480;52.370;9.748;2023-12-20T03:03:12;5.60;99.90
8888;DHT22;4480;52.370;9.748;2023-12-20T03:05:39;5.60;99.90
8888;DHT22;4480;52.370;9.748;2023-12-20T03:08:06;5.60;99.90
8888;DHT22;4480;52.370;9.748;2023-12-20T03:10:33;5.50;99.90
8888;DHT22;4480;52.370;9.748;2023-12-20T03:13:01;5.50;99.90
8888;DHT22;4480;52.370;9.748;2023-12-20T03:15:28;5.50;99.90
8888;DHT22;4480;52.370;9.748;2023-12-20T03:17:55;5.50;99.90
8888;DHT22;4480;52.370;9.748;2023-12-20T03:20:21;5.40;99.90
8888;DHT22;4480;52.370;9.748;2023-12-20T03:22:48;5.40;99.90
8888;DHT22;4480;52.370;9.748;2023-12-20T03:25:15;5.40;99.90
8888;DHT22;4480;52.370;9.748;2023-12-20T03:27:42;5.40;99.90
8888;DHT22;4480;52.370;9.748;2023-12-20T03:30:10;5.40;99.90
8888;DHT22;4480;52.370;9.748;2023-12-20T03:32:38;5.30;99.90
8888;DHT22;4480;52.370;9.748;2023-12-20T03:35:05;5.30;99.90
8888;DHT22;4480;52.370;9.748;2023-12-20T03:37:32;5.30;99.90
8888;DHT22;4480;52.370;9.748;2023-12-20T03:39:59;5.30;99.90
8888;DHT22;4480;52.370;9.748;2023-12-20T03:42:26;5.20;99.90
8888;DHT22;4480;52.370;9.748;2023-12-20T03:44:53;5.30;99.90
8888;DHT22;4480;52.370;9.748;2023-12-20T03:47:21;5.30;99.90
8888;DHT22;4480;52.370;9.748;2023-12-20T03:49:48;5.30;99.90
8888;DHT22;4480;52.370;9.748;2023-12-20T03:52:14;5.30;99.90
8888;DHT22;4480;52.370;9.748;2023-12-20T03:54:41;5.40;99.90
8888;DHT22;4480;52.370;9.748;2023-12-20T03:57:08;5.40;99.90
8888;DHT22;4480;52.370;9.748;2023-12-20T03:59:37;5.40;99.90
8888;DHT22;4480;52.370;9.748;2023-12-20T04:02:04;5.40;99.90
8888;DHT22;4480;52.370;9.748;2023-12-20T04:04:32;5.40;99.90
8888;DHT22;4480;52.370;9.748;2023-12-20T04:06:59;5.50;99.90
8888;DHT22;4480;52.370;9.748;2023-12-20T04:12:46;5.50;99.90
8888;DHT22;4480;52.370;9.748;2023-12-20T04:15:13;5.60;99.90
8888;DHT22;4480;52.370;9.748;2023-12-20T04:17:40;5.60;99.90
8888;DHT22;4480;52.370;9.748;2023-12-20T04:20:07;5.60;99.90
8888;DHT22;4480;52.370;9.748;2023-12-20T04:22:34;5.60;99.90
8888;DHT22;4480;52.370;9.748;2023-12-20T04:25:01;5.60;99.90
8888;DHT22;4480;52.370;9.748;2023-12-20T04:27:28;5.60;99.90
8888;DHT22;4480;52.370;9.748;2023-12-20T04:29:56;5.60;99.90
8888;DHT22;4480;52.370;9.748;2023-12-20T04:32:23;5.70;99.90
8888;DHT22;4480;52.370;9.748;2023-12-20T04:34:50;5.70;99.90
8888;DHT22;4480;52.370;9.748;2023-12-20T04:37:16;5.70;99.90
8888;DHT22;4480;52.370;9.748;2023-12-20T04:39:43;5.80;99.90
8888;DHT22;4480;52.370;9.748;2023-12-20T04:42:10;5.80;99.90
8888;DHT22;4480;52.370;9.748;2023-12-20T04:44:37;5.80;99.90
8888;DHT22;4480;52.370;9.748;2023-12-20T04:47:05;5.90;99.90
8888;DHT22;4480;52.370;9.748;2023-12-20T04:49:32;5.90;99.90
8888;DHT22;4480;52.370;9.748;2023-12-20T04:51:58;5.90;99.90
8888;DHT22;4480;52.370;9.748;2023-12-20T04:54:25;5.90;99.90
8888;DHT22;4480;52.370;9.748;2023-12-20T04:56:52;5.90;99.90
8888;DHT22;4480;52.370;9.748;2023-12-20T04:59:19;5.90;99.90
8888;DHT22;4480;52.370;9.748;2023-12-20T05:01:45;6.00;99.90
8888;DHT22;4480;52.370;9.748;2023-12-20T05:04:14;6.00;99.90
8888;DHT22;4480;52.370;9.748;2023-12-20T05:06:40;6.00;99.90
8888;DHT22;4480;52.370;9.748;2023-12-20T05:09:07;6.00;99.90
8888;DHT22;4480;52.370;9.748;2023-12-20T05:11:34;6.00;99.90
8888;DHT22;4480;52.370;9.748;2023-12-20T05:14:01;6.00;99.90
8888;DHT22;4480;52.370;9.748;2023-12-20T05:16:28;6.00;99.90
8888;DHT22;4480;52.370;9.748;2023-12-20T05:18:54;6.10;99.90
8888;DHT22;4480;52.370;9.748;2023-12-20T05:21:22;6.10;99.90
8888;DHT22;4480;52.370;9.748;2023-12-20T05:23:49;6.10;99.90
8888;DHT22;4480;52.370;9.748;2023-12-20T05:26:16;6.10;99.90
8888;DHT22;4480;52.370;9.748;2023-12-20T05:28:43;6.20;99.90
8888;DHT22;4480;52.370;9.748;2023-12-20T05:31:10;6.20;99.90
8888;DHT22;4480;52.370;9.748;2023-12-20T05:33:37;6.20;99.90
8888;DHT22;4480;52.370;9.748;2023-12-20T05:36:04;6.00;99.90
8888;DHT22;4480;52.370;9.748;2023-12-20T05:38:32;5.90;99.90
8888;DHT22;4480;52.370;9.748;2023-12-20T05:40:59;5.80;99.90
8888;DHT22;4480;52.370;9.748;2023-12-20T05:43:25;5.80;99.90
8888;DHT22;4480;52.370;9.748;2023-12-20T05:45:52;5.80;99.90
8888;DHT22;4480;52.370;9.748;2023-12-20T05:48:19;5.80;99.90
8888;DHT22;4480;52.370;9.748;2023-12-20T05:50:46;5.80;99.90
8888;DHT22;4480;52.370;9.748;2023-12-20T05:53:12;5.80;99.90
8888;DHT22;4480;52.370;9.748;2023-12-20T05:55:41;5.90;99.90
8888;DHT22;4480;52.370;9.748;2023-12-20T05:58:07;5.90;99.90
8888;DHT22;4480;52.370;9.748;2023-12-20T06:00:34;5.90;99.90
8888;DHT22;4480;52.370;9.748;2023-12-20T06:03:01;5.90;99.90
8888;DHT22;4480;52.370;9.748;2023-12-20T06:05:28;5.90;99.90
8888;DHT22;4480;52.370;9.748;2023-12-20T06:07:54;5.90;99.90
8888;DHT22;4480;52.370;9.748;2023-12-20T06:10:23;5.90;99.90
8888;DHT22;4480;52.370;9.748;2023-12-20T06:12:51;5.90;99.90
8888;DHT22;4480;52.370;9.748;2023-12-20T06:15:17;5.90;99.90
8888;DHT22;4480;52.370;9.748;2023-12-20T06:17:44;5.90;99.90
8888;DHT22;4480;52.370;9.748;2023-12-20T06:20:12;5.90;99.90
8888;DHT22;4480;52.370;9.748;2023-12-20T06:22:39;5.90;99.90
8888;DHT22;4480;52.370;9.748;2023-12-20T06:25:06;5.90;99.90
8888;DHT22;4480;52.370;9.748;2023-12-20T06:27:33;5.90;99.90
8888;DHT22;4480;52.370;9.748;2023-12-20T06:30:01;5.90;99.90
8888;DHT22;4480;52.370;9.748;2023-12-20T06:32:28;5.90;99.90
8888;DHT22;4480;52.370;9.748;2023-12-20T06:34:55;5.90;99.90
8888;DHT22;4480;52.370;9.748;2023-12-20T06:37:22;5.90;99.90
8888;DHT22;4480;52.370;9.748;2023-12-20T06:39:49;5.90;99.90
8888;DHT22;4480;52.370;9.748;2023-12-20T06:42:16;6.00;99.90
8888;DHT22;4480;52.370;9.748;2023-12-20T06:44:42;6.00;99.90
8888;DHT22;4480;52.370;9.748;2023-12-20T06:47:11;6.00;99.90
8888;DHT22;4480;52.370;9.748;2023-12-20T06:49:39;6.00;99.90
8888;DHT22;4480;52.370;9.748;2023-12-20T06:52:06;6.00;99.90
8888;DHT22;4480;52.370;9.748;2023-12-20T06:54:33;6.00;99.90
8888;DHT22;4480;52.370;9.748;2023-12-20T06:57:00;6.00;99.90
8888;DHT22;4480;52.370;9.748;2023-12-20T06:59:28;5.90;99.90
8888;DHT22;4480;52.370;9.748;2023-12-20T07:01:55;5.90;99.90
8888;DHT22;4480;52.370;9.748;2023-12-20T07:04:23;5.80;99.90
8888;DHT22;4480;52.370;9.748;2023-12-20T07:06:50;5.80;99.90
8888;DHT22;4480;52.370;9.748;2023-12-20T07:09:19;5.80;99.90
8888;DHT22;4480;52.370;9.748;2023-12-20T07:11:46;5.70;99.90
8888;DHT22;4480;52.370;9.748;2023-12-20T07:14:13;5.70;99.90
8888;DHT22;4480;52.370;9.748;2023-12-20T07:16:40;5.70;99.90
8888;DHT22;4480;52.370;9.748;2023-12-20T07:19:06;5.70;99.90
8888;DHT22;4480;52.370;9.748;2023-12-20T07:21:35;5.60;99.90
8888;DHT22;4480;52.370;9.748;2023-12-20T07:24:01;5.60;99.90
8888;DHT22;4480;52.370;9.748;2023-12-20T07:26:28;5.60;99.90
8888;DHT22;4480;52.370;9.748;2023-12-20T07:28:55;5.60;99.90
8888;DHT22;4480;52.370;9.748;2023-12-20T07:31:22;5.60;99.90
8888;DHT22;4480;52.370;9.748;2023-12-20T07:33:49;5.60;99.90
8888;DHT22;4480;52.370;9.748;2023-12-20T07:36:16;5.70;99.90
8888;DHT22;4480;52.370;9.748;2023-12-20T07:38:44;5.80;99.90
8888;DHT22;4480;52.370;9.748;2023-12-20T07:41:11;5.80;99.90
8888;DHT22;4480;52.370;9.748;2023-12-20T07:43:38;5.90;99.90
8888;DHT22;4480;52.370;9.748;2023-12-20T07:46:05;5.80;99.90
8888;DHT22;4480;52.370;9.748;2023-12-20T07:48:33;5.80;99.90
8888;DHT22;4480;52.370;9.748;2023-12-20T07:51:00;5.80;99.90
8888;DHT22;4480;52.370;9.748;2023-12-20T07:53:27;5.70;99.90
8888;DHT22;4480;52.370;9.748;2023-12-20T07:55:55;5.70;99.90
8888;DHT22;4480;52.370;9.748;2023-12-20T07:58:22;5.60;99.90
8888;DHT22;4480;52.370;9.748;2023-12-20T08:00:49;5.60;99.90
8888;DHT22;4480;52.370;9.748;2023-12-20T08:03:15;5.60;99.90
8888;DHT22;4480;52.370;9.748;2023-12-20T08:05:42;5.50;99.90
8888;DHT22;4480;52.370;9.748;2023-12-20T08:08:09;5.50;99.90
8888;DHT22;4480;52.370;9.748;2023-12-20T08:10:36;5.50;99.90
8888;DHT22;4480;52.370;9.748;2023-12-20T08:13:04;5.50;99.90
8888;DHT22;4480;52.370;9.748;2023-12-20T08:15:31;5.50;99.90
8888;DHT22;4480;52.370;9.748;2023-12-20T08:17:58;5.50;99.90
8888;DHT22;4480;52.370;9.748;2023-12-20T08:20:24;5.50;99.90
8888;DHT22;4480;52.370;9.748;2023-12-20T08:22:51;5.60;99.90
8888;DHT22;4480;52.370;9.748;2023-12-20T08:25:18;5.60;99.90
8888;DHT22;4480;52.370;9.748;2023-12-20T08:27:45;5.60;99.90
8888;DHT22;4480;52.370;9.748;2023-12-20T08:30:13;5.70;99.90
8888;DHT22;4480;52.370;9.748;2023-12-20T08:32:42;5.70;99.90
8888;DHT22;4480;52.370;9.748;2023-12-20T08:35:09;5.70;99.90
8888;DHT22;4480;52.370;9.748;2023-12-20T08:37:35;5.80;99.90
8888;DHT22;4480;52.370;9.748;2023-12-20T08:40:03;5.90;99.90
8888;DHT22;4480;52.370;9.748;2023-12-20T08:42:30;5.90;99.90
8888;DHT22;4480;52.370;9.748;2023-12-20T08:44:57;5.90;99.90
8888;DHT22;4480;52.370;9.748;2023-12-20T08:47:25;6.00;99.90
8888;DHT22;4480;52.370;9.748;2023-12-20T08:49:52;6.00;99.90
8888;DHT22;4480;52.370;9.748;2023-12-20T08:52:21;6.00;99.90
8888;DHT22;4480;52.370;9.748;2023-12-20T08:54:48;6.10;99.90
8888;DHT22;4480;52.370;9.748;2023-12-20T08:57:17;6.10;99.90
8888;DHT22;4480;52.370;9.748;2023-12-20T08:59:44;6.10;99.90
8888;DHT22;4480;52.370;9.748;2023-12-20T09:02:10;6.10;99.90
8888;DHT22;4480;52.370;9.748;2023-12-20T09:04:39;6.20;99.90
8888;DHT22;4480;52.370;9.748;2023-12-20T09:07:05;6.20;99.90
8888;DHT22;4480;52.370;9.748;2023-12-20T09:09:33;6.20;99.90
8888;DHT22;4480;52.370;9.748;2023-12-20T09:11:59;6.30;99.90
8888;DHT22;4480;52.370;9.748;2023-12-20T09:14:26;6.30;99.90
8888;DHT22;4480;52.370;9.748;2023-12-20T09:16:53;6.30;99.90
8888;DHT22;4480;52.370;9.748;2023-12-20T09:19:21;6.30;99.90
8888;DHT22;4480;52.370;9.748;2023-12-20T09:21:49;6.30;99.90
8888;DHT22;4480;52.370;9.748;2023-12-20T09:24:16;6.30;99.90
8888;DHT22;4480;52.370;9.748;2023-12-20T09:26:43;6.30;99.90
8888;DHT22;4480;52.370;9.748;2023-12-20T09:29:09;6.30;99.90
8888;DHT22;4480;52.370;9.748;2023-12-20T09:31:40;6.30;99.90
8888;DHT22;4480;52.370;9.748;2023-12-20T09:34:09;6.30;99.90
8888;DHT22;4480;52.370;9.748;2023-12-20T09:36:36;6.30;99.90
8888;DHT22;4480;52.370;9.748;2023-12-20T09:39:05;6.40;99.90
8888;DHT22;4480;52.370;9.748;2023-12-20T09:41:35;6.40;99.90
8888;DHT22;4480;52.370;9.748;2023-12-20T09:44:04;6.40;99.90
8888;DHT22;4480;52.370;9.748;2023-12-20T09:46:32;6.40;99.90
8888;DHT22;4480;52.370;9.748;2023-12-20T09:49:01;6.50;99.90
8888;DHT22;4480;52.370;9.748;2023-12-20T09:51:29;6.50;99.90
8888;DHT22;4480;52.370;9.748;2023-12-20T09:53:57;6.50;99.90
8888;DHT22;4480;52.370;9.748;2023-12-20T09:56:26;6.60;99.90
8888;DHT22;4480;52.370;9.748;2023-12-20T09:58:54;6.60;99.90
8888;DHT22;4480;52.370;9.748;2023-12-20T10:01:22;6.70;99.90
8888;DHT22;4480;52.370;9.748;2023-12-20T10:03:50;6.80;99.90
8888;DHT22;4480;52.370;9.748;2023-12-20T10:06:17;6.80;99.90
8888;DHT22;4480;52.370;9.748;2023-12-20T10:08:44;6.80;99.90
8888;DHT22;4480;52.370;9.748;2023-12-20T10:11:11;6.80;99.90
8888;DHT22;4480;52.370;9.748;2023-12-20T10:13:41;7.00;99.90
8888;DHT22;4480;52.370;9.748;2023-12-20T10:16:08;7.10;99.90
8888;DHT22;4480;52.370;9.748;2023-12-20T10:18:34;7.10;99.90
8888;DHT22;4480;52.370;9.748;2023-12-20T10:21:01;7.10;99.90
8888;DHT22;4480;52.370;9.748;2023-12-20T10:23:29;7.10;99.90
8888;DHT22;4480;52.370;9.748;2023-12-20T10:25:56;7.10;99.90
8888;DHT22;4480;52.370;9.748;2023-12-20T10:28:23;7.10;99.90
8888;DHT22;4480;52.370;9.748;2023-12-20T10:30:55;7.20;99.90
8888;DHT22;4480;52.370;9.748;2023-12-20T10:33:24;7.20;99.90
8888;DHT22;4480;52.370;9.748;2023-12-20T10:35:52;7.20;99.90
8888;DHT22;4480;52.370;9.748;2023-12-20T10:38:19;7.20;99.90
8888;DHT22;4480;52.370;9.748;2023-12-20T10:40:46;7.30;99.90
8888;DHT22;4480;52.370;9.748;2023-12-20T10:43:13;7.20;99.90
8888;DHT22;4480;52.370;9.748;2023-12-20T10:45:42;7.20;99.90
8888;DHT22;4480;52.370;9.748;2023-12-20T10:48:11;7.20;99.90
8888;DHT22;4480;52.370;9.748;2023-12-20T10:50:38;7.30;99.90
8888;DHT22;4480;52.370;9.748;2023-12-20T10:53:06;7.20;99.90
8888;DHT22;4480;52.370;9.748;2023-12-20T10:55:33;7.20;99.90
8888;DHT22;4480;52.370;9.748;2023-12-20T10:58:03;7.20;99.90
8888;DHT22;4480;52.370;9.748;2023-12-20T11:00:35;7.10;99.90
8888;DHT22;4480;52.370;9.748;2023-12-20T11:03:07;7.00;99.90
8888;DHT22;4480;52.370;9.748;2023-12-20T11:05:43;7.00;99.90
8888;DHT22;4480;52.370;9.748;2023-12-20T11:08:16;7.00;99.90
8888;DHT22;4480;52.370;9.748;2023-12-20T11:10:48;7.00;99.90
8888;DHT22;4480;52.370;9.748;2023-12-20T11:13:21;7.00;99.90
8888;DHT22;4480;52.370;9.748;2023-12-20T11:15:49;7.10;99.90
8888;DHT22;4480;52.370;9.748;2023-12-20T11:18:16;7.10;99.90
8888;DHT22;4480;52.370;9.748;2023-12-20T11:20:44;7.00;99.90
8888;DHT22;4480;52.370;9.748;2023-12-20T11:23:11;7.00;99.90
8888;DHT22;4480;52.370;9.748;2023-12-20T11:25:48;7.00;99.90
8888;DHT22;4480;52.370;9.748;2023-12-20T11:28:15;7.00;99.90
8888;DHT22;4480;52.370;9.748;2023-12-20T11:30:47;6.90;99.90
8888;DHT22;4480;52.370;9.748;2023-12-20T11:33:14;6.90;99.90
8888;DHT22;4480;52.370;9.748;2023-12-20T11:35:41;6.80;99.90
8888;DHT22;4480;52.370;9.748;2023-12-20T11:38:10;6.70;99.90
8888;DHT22;4480;52.370;9.748;2023-12-20T11:40:37;6.70;99.90
8888;DHT22;4480;52.370;9.748;2023-12-20T11:43:04;6.60;99.90
8888;DHT22;4480;52.370;9.748;2023-12-20T11:45:31;6.50;99.90
8888;DHT22;4480;52.370;9.748;2023-12-20T11:48:00;6.50;99.90
8888;DHT22;4480;52.370;9.748;2023-12-20T11:50:28;6.30;99.90
8888;DHT22;4480;52.370;9.748;2023-12-20T11:52:55;6.30;99.90
8888;DHT22;4480;52.370;9.748;2023-12-20T11:55:24;6.10;99.90
8888;DHT22;4480;52.370;9.748;2023-12-20T11:57:51;6.00;99.90
8888;DHT22;4480;52.370;9.748;2023-12-20T12:00:18;5.80;99.90
8888;DHT22;4480;52.370;9.748;2023-12-20T12:02:55;5.70;99.90
8888;DHT22;4480;52.370;9.748;2023-12-20T12:05:22;5.60;99.90
8888;DHT22;4480;52.370;9.748;2023-12-20T12:07:49;5.50;99.90
8888;DHT22;4480;52.370;9.748;2023-12-20T12:10:16;5.40;99.90
8888;DHT22;4480;52.370;9.748;2023-12-20T12:12:44;5.40;99.90
8888;DHT22;4480;52.370;9.748;2023-12-20T12:15:11;5.40;99.90
8888;DHT22;4480;52.370;9.748;2023-12-20T12:17:38;5.30;99.90
8888;DHT22;4480;52.370;9.748;2023-12-20T12:20:06;5.30;99.90
8888;DHT22;4480;52.370;9.748;2023-12-20T12:22:33;5.40;99.90
8888;DHT22;4480;52.370;9.748;2023-12-20T12:25:10;5.40;99.90
8888;DHT22;4480;52.370;9.748;2023-12-20T12:27:36;5.40;99.90
8888;DHT22;4480;52.370;9.748;2023-12-20T12:30:06;5.40;99.90
8888;DHT22;4480;52.370;9.748;2023-12-20T12:32:33;5.40;99.90
8888;DHT22;4480;52.370;9.748;2023-12-20T12:35:02;5.40;99.90
8888;DHT22;4480;52.370;9.748;2023-12-20T12:37:29;5.40;99.90
8888;DHT22;4480;52.370;9.748;2023-12-20T12:39:56;5.40;99.90
8888;DHT22;4480;52.370;9.748;2023-12-20T12:42:23;5.40;99.90
8888;DHT22;4480;52.370;9.748;2023-12-20T12:44:54;5.40;99.90
8888;DHT22;4480;52.370;9.748;2023-12-20T12:47:22;5.40;99.90
8888;DHT22;4480;52.370;9.748;2023-12-20T12:49:50;5.30;99.90
8888;DHT22;4480;52.370;9.748;2023-12-20T12:52:17;5.30;99.90
8888;DHT22;4480;52.370;9.748;2023-12-20T12:54:44;5.20;99.90
8888;DHT22;4480;52.370;9.748;2023-12-20T12:57:14;5.30;99.90
8888;DHT22;4480;52.370;9.748;2023-12-20T12:59:41;5.20;99.90
8888;DHT22;4480;52.370;9.748;2023-12-20T13:02:08;5.20;99.90
8888;DHT22;4480;52.370;9.748;2023-12-20T13:04:36;5.20;99.90
8888;DHT22;4480;52.370;9.748;2023-12-20T13:07:03;5.20;99.90
8888;DHT22;4480;52.370;9.748;2023-12-20T13:09:30;5.20;99.90
8888;DHT22;4480;52.370;9.748;2023-12-20T13:11:57;5.10;99.90
8888;DHT22;4480;52.370;9.748;2023-12-20T13:14:24;5.10;99.90
8888;DHT22;4480;52.370;9.748;2023-12-20T13:16:51;5.10;99.90
8888;DHT22;4480;52.370;9.748;2023-12-20T13:19:17;5.10;99.90
8888;DHT22;4480;52.370;9.748;2023-12-20T13:21:46;5.20;99.90
8888;DHT22;4480;52.370;9.748;2023-12-20T13:24:12;5.30;99.90
8888;DHT22;4480;52.370;9.748;2023-12-20T13:26:39;5.40;99.90
8888;DHT22;4480;52.370;9.748;2023-12-20T13:29:06;5.40;99.90
8888;DHT22;4480;52.370;9.748;2023-12-20T13:31:33;5.60;99.90
8888;DHT22;4480;52.370;9.748;2023-12-20T13:34:02;5.60;99.90
8888;DHT22;4480;52.370;9.748;2023-12-20T13:36:28;5.60;99.90
8888;DHT22;4480;52.370;9.748;2023-12-20T13:38:56;5.70;99.90
8888;DHT22;4480;52.370;9.748;2023-12-20T13:41:23;5.80;99.90
8888;DHT22;4480;52.370;9.748;2023-12-20T13:43:50;5.80;99.90
8888;DHT22;4480;52.370;9.748;2023-12-20T13:46:17;5.90;99.90
8888;DHT22;4480;52.370;9.748;2023-12-20T13:48:43;5.90;99.90
8888;DHT22;4480;52.370;9.748;2023-12-20T13:51:10;6.00;99.90
8888;DHT22;4480;52.370;9.748;2023-12-20T13:53:37;6.00;99.90
8888;DHT22;4480;52.370;9.748;2023-12-20T13:56:06;6.00;99.90
8888;DHT22;4480;52.370;9.748;2023-12-20T13:58:33;6.00;99.90
8888;DHT22;4480;52.370;9.748;2023-12-20T14:01:00;6.00;99.90
8888;DHT22;4480;52.370;9.748;2023-12-20T14:03:27;6.10;99.90
8888;DHT22;4480;52.370;9.748;2023-12-20T14:05:55;6.10;99.90
8888;DHT22;4480;52.370;9.748;2023-12-20T14:08:22;6.10;99.90
8888;DHT22;4480;52.370;9.748;2023-12-20T14:10:49;6.10;99.90
8888;DHT22;4480;52.370;9.748;2023-12-20T14:13:18;6.10;99.90
8888;DHT22;4480;52.370;9.748;2023-12-20T14:15:44;6.10;99.90
8888;DHT22;4480;52.370;9.748;2023-12-20T14:18:12;6.10;99.90
8888;DHT22;4480;52.370;9.748;2023-12-20T14:20:40;6.20;99.90
8888;DHT22;4480;52.370;9.748;2023-12-20T14:23:08;6.20;99.90
8888;DHT22;4480;52.370;9.748;2023-12-20T14:25:35;6.20;99.90
8888;DHT22;4480;52.370;9.748;2023-12-20T14:28:03;6.20;99.90
8888;DHT22;4480;52.370;9.748;2023-12-20T14:30:31;6.20;99.90
8888;DHT22;4480;52.370;9.748;2023-12-20T14:32:58;6.20;99.90
8888;DHT22;4480;52.370;9.748;2023-12-20T14:35:25;6.30;99.90
8888;DHT22;4480;52.370;9.748;2023-12-20T14:37:51;6.20;99.90
8888;DHT22;4480;52.370;9.748;2023-12-20T14:40:19;6.20;99.90
8888;DHT22;4480;52.370;9.748;2023-12-20T14:42:46;6.30;99.90
8888;DHT22;4480;52.370;9.748;2023-12-20T14:45:13;6.30;99.90
8888;DHT22;4480;52.370;9.748;2023-12-20T14:47:43;6.30;99.90
8888;DHT22;4480;52.370;9.748;2023-12-20T14:50:10;6.30;99.90
8888;DHT22;4480;52.370;9.748;2023-12-20T14:52:37;6.30;99.90
8888;DHT22;4480;52.370;9.748;2023-12-20T14:55:05;6.30;99.90
8888;DHT22;4480;52.370;9.748;2023-12-20T14:57:32;6.30;99.90
8888;DHT22;4480;52.370;9.748;2023-12-20T14:59:58;6.20;99.90
8888;DHT22;4480;52.370;9.748;2023-12-20T15:02:25;6.30;99.90
8888;DHT22;4480;52.370;9.748;2023-12-20T15:04:53;6.20;99.90
8888;DHT22;4480;52.370;9.748;2023-12-20T15:07:20;6.20;99.90
8888;DHT22;4480;52.370;9.748;2023-12-20T15:09:47;6.20;99.90
8888;DHT22;4480;52.370;9.748;2023-12-20T15:12:14;6.20;99.90
8888;DHT22;4480;52.370;9.748;2023-12-20T15:14:41;6.20;99.90
8888;DHT22;4480;52.370;9.748;2023-12-20T15:17:08;6.20;99.90
8888;DHT22;4480;52.370;9.748;2023-12-20T15:19:35;6.20;99.90
8888;DHT22;4480;52.370;9.748;2023-12-20T15:22:03;6.20;99.90
8888;DHT22;4480;52.370;9.748;2023-12-20T15:24:30;6.20;99.90
8888;DHT22;4480;52.370;9.748;2023-12-20T15:27:04;6.20;99.90
8888;DHT22;4480;52.370;9.748;2023-12-20T15:29:31;6.20;99.90
8888;DHT22;4480;52.370;9.748;2023-12-20T15:31:57;6.20;99.90
8888;DHT22;4480;52.370;9.748;2023-12-20T15:34:24;6.20;99.90
8888;DHT22;4480;52.370;9.748;2023-12-20T15:36:51;6.20;99.90
8888;DHT22;4480;52.370;9.748;2023-12-20T15:39:19;6.30;99.90
8888;DHT22;4480;52.370;9.748;2023-12-20T15:41:46;6.20;99.90
8888;DHT22;4480;52.370;9.748;2023-12-20T15:44:13;6.20;99.90
8888;DHT22;4480;52.370;9.748;2023-12-20T15:46:41;6.20;99.90
8888;DHT22;4480;52.370;9.748;2023-12-20T15:49:08;6.20;99.90
8888;DHT22;4480;52.370;9.748;2023-12-20T15:51:36;6.30;99.90
8888;DHT22;4480;52.370;9.748;2023-12-20T15:54:03;6.30;99.90
8888;DHT22;4480;52.370;9.748;2023-12-20T15:56:33;6.20;99.90
8888;DHT22;4480;52.370;9.748;2023-12-20T15:59:00;6.10;99.90
8888;DHT22;4480;52.370;9.748;2023-12-20T16:01:29;6.00;99.90
8888;DHT22;4480;52.370;9.748;2023-12-20T16:03:56;5.90;99.90
8888;DHT22;4480;52.370;9.748;2023-12-20T16:06:22;5.90;99.90
8888;DHT22;4480;52.370;9.748;2023-12-20T16:08:50;5.80;99.90
8888;DHT22;4480;52.370;9.748;2023-12-20T16:11:16;5.80;99.90
8888;DHT22;4480;52.370;9.748;2023-12-20T16:13:44;5.70;99.90
8888;DHT22;4480;52.370;9.748;2023-12-20T16:16:11;5.60;99.90
8888;DHT22;4480;52.370;9.748;2023-12-20T16:18:38;5.60;99.90
8888;DHT22;4480;52.370;9.748;2023-12-20T16:21:05;5.50;99.90